sensor_id;sensor_type;location;lat;lon;timestamp;pressure;altitude;pressure_sealevel;temperature;humidity
17309;BME280;8772;42.804;23.426;2023-02-01T00:02:01;75106.41;;;-140.58;100.00
17309;BME280;8772;42.804;23.426;2023-02-01T00:04:28;75122.84;;;-140.58;100.00
17309;BME280;8772;42.804;23.426;2023-02-01T00:06:55;75098.22;;;-140.58;100.00
17309;BME280;8772;42.804;23.426;2023-02-01T00:09:22;75112.56;;;-140.58;100.00
17309;BME280;8772;42.804;23.426;2023-02-01T00:11:48;75110.53;;;-140.58;100.00
17309;BME280;8772;42.804;23.426;2023-02-01T00:14:17;75094.09;;;-140.58;100.00
17309;BME280;8772;42.804;23.426;2023-02-01T00:16:43;75073.56;;;-140.58;100.00
17309;BME280;8772;42.804;23.426;2023-02-01T00:19:12;75065.38;;;-140.58;100.00
17309;BME280;8772;42.804;23.426;2023-02-01T00:21:39;75063.31;;;-140.58;100.00
17309;BME280;8772;42.804;23.426;2023-02-01T00:24:06;75048.94;;;-140.58;100.00
17309;BME280;8772;42.804;23.426;2023-02-01T00:26:36;75051.00;;;-140.58;100.00
17309;BME280;8772;42.804;23.426;2023-02-01T00:29:05;75040.75;;;-140.58;100.00
17309;BME280;8772;42.804;23.426;2023-02-01T00:31:33;75044.84;;;-140.58;100.00
17309;BME280;8772;42.804;23.426;2023-02-01T00:34:00;75040.75;;;-140.58;100.00
17309;BME280;8772;42.804;23.426;2023-02-01T00:36:27;75036.66;;;-140.58;100.00
17309;BME280;8772;42.804;23.426;2023-02-01T00:38:55;75028.44;;;-140.58;100.00
17309;BME280;8772;42.804;23.426;2023-02-01T00:41:22;75024.31;;;-140.58;100.00
17309;BME280;8772;42.804;23.426;2023-02-01T00:43:50;75044.84;;;-140.58;100.00
17309;BME280;8772;42.804;23.426;2023-02-01T00:46:18;75040.75;;;-140.58;100.00
17309;BME280;8772;42.804;23.426;2023-02-01T00:48:47;75028.44;;;-140.58;100.00
17309;BME280;8772;42.804;23.426;2023-02-01T00:51:16;75022.28;;;-140.58;100.00
17309;BME280;8772;42.804;23.426;2023-02-01T00:53:43;75028.44;;;-140.58;100.00
17309;BME280;8772;42.804;23.426;2023-02-01T00:56:11;75030.47;;;-140.58;100.00
17309;BME280;8772;42.804;23.426;2023-02-01T00:58:38;75026.38;;;-140.58;100.00
17309;BME280;8772;42.804;23.426;2023-02-01T01:01:07;75007.91;;;-140.58;100.00
17309;BME280;8772;42.804;23.426;2023-02-01T01:06:57;74993.53;;;-140.58;100.00
17309;BME280;8772;42.804;23.426;2023-02-01T01:09:24;74979.19;;;-140.58;100.00
17309;BME280;8772;42.804;23.426;2023-02-01T01:11:51;74987.38;;;-140.58;100.00
17309;BME280;8772;42.804;23.426;2023-02-01T01:14:18;74975.06;;;-140.58;100.00
17309;BME280;8772;42.804;23.426;2023-02-01T01:16:45;74964.81;;;-140.58;100.00
17309;BME280;8772;42.804;23.426;2023-02-01T01:19:12;74979.19;;;-140.58;100.00
17309;BME280;8772;42.804;23.426;2023-02-01T01:21:39;74966.88;;;-140.58;100.00
17309;BME280;8772;42.804;23.426;2023-02-01T01:24:07;74968.91;;;-140.58;100.00
17309;BME280;8772;42.804;23.426;2023-02-01T01:26:34;74991.50;;;-140.58;100.00
17309;BME280;8772;42.804;23.426;2023-02-01T01:29:01;74987.38;;;-140.58;100.00
17309;BME280;8772;42.804;23.426;2023-02-01T01:31:28;74999.69;;;-140.58;100.00
17309;BME280;8772;42.804;23.426;2023-02-01T01:33:56;74983.28;;;-140.58;100.00
17309;BME280;8772;42.804;23.426;2023-02-01T01:36:24;74987.38;;;-140.58;100.00
17309;BME280;8772;42.804;23.426;2023-02-01T01:38:51;74985.34;;;-140.58;100.00
17309;BME280;8772;42.804;23.426;2023-02-01T01:41:22;74995.59;;;-140.58;100.00
17309;BME280;8772;42.804;23.426;2023-02-01T01:43:54;75022.28;;;-140.58;100.00
17309;BME280;8772;42.804;23.426;2023-02-01T01:46:23;75022.28;;;-140.58;100.00
17309;BME280;8772;42.804;23.426;2023-02-01T01:48:57;75016.13;;;-140.58;100.00
17309;BME280;8772;42.804;23.426;2023-02-01T01:51:28;75020.22;;;-140.58;100.00
17309;BME280;8772;42.804;23.426;2023-02-01T01:53:59;75048.94;;;-140.58;100.00
17309;BME280;8772;42.804;23.426;2023-02-01T01:56:30;75036.66;;;-140.58;100.00
17309;BME280;8772;42.804;23.426;2023-02-01T01:58:59;75065.38;;;-140.58;100.00
17309;BME280;8772;42.804;23.426;2023-02-01T02:01:27;75073.56;;;-140.58;100.00
17309;BME280;8772;42.804;23.426;2023-02-01T02:03:55;75077.69;;;-140.58;100.00
17309;BME280;8772;42.804;23.426;2023-02-01T02:06:31;75083.84;;;-140.58;100.00
17309;BME280;8772;42.804;23.426;2023-02-01T02:09:00;75081.78;;;-140.58;100.00
17309;BME280;8772;42.804;23.426;2023-02-01T02:11:26;75102.31;;;-140.58;100.00
17309;BME280;8772;42.804;23.426;2023-02-01T02:13:56;75108.47;;;-140.58;100.00
17309;BME280;8772;42.804;23.426;2023-02-01T02:16:46;75131.03;;;-140.58;100.00
17309;BME280;8772;42.804;23.426;2023-02-01T02:22:46;75102.31;;;-140.58;100.00
17309;BME280;8772;42.804;23.426;2023-02-01T02:28:49;75145.41;;;-140.58;100.00
17309;BME280;8772;42.804;23.426;2023-02-01T02:31:40;75141.31;;;-140.58;100.00
17309;BME280;8772;42.804;23.426;2023-02-01T02:34:18;75151.56;;;-140.58;100.00
17309;BME280;8772;42.804;23.426;2023-02-01T02:36:55;75151.56;;;-140.58;100.00
17309;BME280;8772;42.804;23.426;2023-02-01T02:39:38;75147.47;;;-140.58;100.00
17309;BME280;8772;42.804;23.426;2023-02-01T02:42:12;75124.88;;;-140.58;100.00
17309;BME280;8772;42.804;23.426;2023-02-01T02:45:02;75122.84;;;-140.58;100.00
17309;BME280;8772;42.804;23.426;2023-02-01T02:47:54;75102.31;;;-140.58;100.00
17309;BME280;8772;42.804;23.426;2023-02-01T02:50:27;75092.06;;;-140.58;100.00
17309;BME280;8772;42.804;23.426;2023-02-01T02:53:16;75085.91;;;-140.58;100.00
17309;BME280;8772;42.804;23.426;2023-02-01T02:56:02;75073.56;;;-140.58;100.00
17309;BME280;8772;42.804;23.426;2023-02-01T02:58:47;75065.38;;;-140.58;100.00
17309;BME280;8772;42.804;23.426;2023-02-01T03:01:32;75069.47;;;-140.58;100.00
17309;BME280;8772;42.804;23.426;2023-02-01T03:04:18;75069.47;;;-140.58;100.00
17309;BME280;8772;42.804;23.426;2023-02-01T03:06:47;75067.44;;;-140.58;100.00
17309;BME280;8772;42.804;23.426;2023-02-01T03:09:19;75065.38;;;-140.58;100.00
17309;BME280;8772;42.804;23.426;2023-02-01T03:11:49;75069.47;;;-140.58;100.00
17309;BME280;8772;42.804;23.426;2023-02-01T03:14:51;75061.28;;;-140.58;100.00
17309;BME280;8772;42.804;23.426;2023-02-01T03:17:22;75083.84;;;-140.58;100.00
17309;BME280;8772;42.804;23.426;2023-02-01T03:19:52;75067.44;;;-140.58;100.00
17309;BME280;8772;42.804;23.426;2023-02-01T03:22:23;75075.63;;;-140.58;100.00
17309;BME280;8772;42.804;23.426;2023-02-01T03:24:54;75057.16;;;-140.58;100.00
17309;BME280;8772;42.804;23.426;2023-02-01T03:27:24;75057.16;;;-140.58;100.00
17309;BME280;8772;42.804;23.426;2023-02-01T03:29:57;75051.00;;;-140.58;100.00
17309;BME280;8772;42.804;23.426;2023-02-01T03:32:26;75051.00;;;-140.58;100.00
17309;BME280;8772;42.804;23.426;2023-02-01T03:34:53;75051.00;;;-140.58;100.00
17309;BME280;8772;42.804;23.426;2023-02-01T03:37:25;75036.66;;;-140.58;100.00
17309;BME280;8772;42.804;23.426;2023-02-01T03:39:57;75028.44;;;-140.58;100.00
17309;BME280;8772;42.804;23.426;2023-02-01T03:42:30;75022.28;;;-140.58;100.00
17309;BME280;8772;42.804;23.426;2023-02-01T03:45:06;75012.00;;;-140.58;100.00
17309;BME280;8772;42.804;23.426;2023-02-01T03:47:37;75020.22;;;-140.58;100.00
17309;BME280;8772;42.804;23.426;2023-02-01T03:50:09;75012.00;;;-140.58;100.00
17309;BME280;8772;42.804;23.426;2023-02-01T03:52:41;75005.84;;;-140.58;100.00
17309;BME280;8772;42.804;23.426;2023-02-01T03:55:11;75003.81;;;-140.58;100.00
17309;BME280;8772;42.804;23.426;2023-02-01T03:57:44;74993.53;;;-140.58;100.00
17309;BME280;8772;42.804;23.426;2023-02-01T04:00:17;75003.81;;;-140.58;100.00
17309;BME280;8772;42.804;23.426;2023-02-01T04:02:45;74997.66;;;-140.58;100.00
17309;BME280;8772;42.804;23.426;2023-02-01T04:05:12;74991.50;;;-140.58;100.00
17309;BME280;8772;42.804;23.426;2023-02-01T04:07:40;74995.59;;;-140.58;100.00
17309;BME280;8772;42.804;23.426;2023-02-01T04:10:09;75001.75;;;-140.58;100.00
17309;BME280;8772;42.804;23.426;2023-02-01T04:12:36;74999.69;;;-140.58;100.00
17309;BME280;8772;42.804;23.426;2023-02-01T04:15:04;74991.50;;;-140.58;100.00
17309;BME280;8772;42.804;23.426;2023-02-01T04:17:31;74985.34;;;-140.58;100.00
17309;BME280;8772;42.804;23.426;2023-02-01T04:19:57;74987.38;;;-140.58;100.00
17309;BME280;8772;42.804;23.426;2023-02-01T04:22:24;75001.75;;;-140.58;100.00
17309;BME280;8772;42.804;23.426;2023-02-01T04:24:53;75012.00;;;-140.58;100.00
17309;BME280;8772;42.804;23.426;2023-02-01T04:27:19;75003.81;;;-140.58;100.00
17309;BME280;8772;42.804;23.426;2023-02-01T04:29:46;75016.13;;;-140.58;100.00
17309;BME280;8772;42.804;23.426;2023-02-01T04:32:15;75012.00;;;-140.58;100.00
17309;BME280;8772;42.804;23.426;2023-02-01T04:34:41;74993.53;;;-140.58;100.00
17309;BME280;8772;42.804;23.426;2023-02-01T04:37:08;74991.50;;;-140.58;100.00
17309;BME280;8772;42.804;23.426;2023-02-01T04:39:37;75012.00;;;-140.58;100.00
17309;BME280;8772;42.804;23.426;2023-02-01T04:42:06;74995.59;;;-140.58;100.00
17309;BME280;8772;42.804;23.426;2023-02-01T04:44:34;74997.66;;;-140.58;100.00
17309;BME280;8772;42.804;23.426;2023-02-01T04:47:02;74987.38;;;-140.58;100.00
17309;BME280;8772;42.804;23.426;2023-02-01T04:49:29;75003.81;;;-140.58;100.00
17309;BME280;8772;42.804;23.426;2023-02-01T04:51:56;75005.84;;;-140.58;100.00
17309;BME280;8772;42.804;23.426;2023-02-01T04:54:23;74999.69;;;-140.58;100.00
17309;BME280;8772;42.804;23.426;2023-02-01T04:56:49;74997.66;;;-140.58;100.00
17309;BME280;8772;42.804;23.426;2023-02-01T04:59:18;74999.69;;;-140.58;100.00
17309;BME280;8772;42.804;23.426;2023-02-01T05:01:45;74997.66;;;-140.58;100.00
17309;BME280;8772;42.804;23.426;2023-02-01T05:04:12;74999.69;;;-140.58;100.00
17309;BME280;8772;42.804;23.426;2023-02-01T05:06:38;74995.59;;;-140.58;100.00
17309;BME280;8772;42.804;23.426;2023-02-01T05:09:05;75001.75;;;-140.58;100.00
17309;BME280;8772;42.804;23.426;2023-02-01T05:11:32;74991.50;;;-140.58;100.00
17309;BME280;8772;42.804;23.426;2023-02-01T05:14:18;74999.69;;;-140.58;100.00
17309;BME280;8772;42.804;23.426;2023-02-01T05:16:45;74999.69;;;-140.58;100.00
17309;BME280;8772;42.804;23.426;2023-02-01T05:19:12;74989.44;;;-140.58;100.00
17309;BME280;8772;42.804;23.426;2023-02-01T05:21:39;74993.53;;;-140.58;100.00
17309;BME280;8772;42.804;23.426;2023-02-01T05:24:07;74997.66;;;-140.58;100.00
17309;BME280;8772;42.804;23.426;2023-02-01T05:26:39;74997.66;;;-140.58;100.00
17309;BME280;8772;42.804;23.426;2023-02-01T05:29:07;74991.50;;;-140.58;100.00
17309;BME280;8772;42.804;23.426;2023-02-01T05:31:36;74995.59;;;-140.58;100.00
17309;BME280;8772;42.804;23.426;2023-02-01T05:34:03;75007.91;;;-140.58;100.00
17309;BME280;8772;42.804;23.426;2023-02-01T05:36:30;75016.13;;;-140.58;100.00
17309;BME280;8772;42.804;23.426;2023-02-01T05:38:57;75007.91;;;-140.58;100.00
17309;BME280;8772;42.804;23.426;2023-02-01T05:41:24;75001.75;;;-140.58;100.00
17309;BME280;8772;42.804;23.426;2023-02-01T05:43:51;74983.28;;;-140.58;100.00
17309;BME280;8772;42.804;23.426;2023-02-01T05:46:18;74989.44;;;-140.58;100.00
17309;BME280;8772;42.804;23.426;2023-02-01T05:48:46;74987.38;;;-140.58;100.00
17309;BME280;8772;42.804;23.426;2023-02-01T05:51:13;74987.38;;;-140.58;100.00
17309;BME280;8772;42.804;23.426;2023-02-01T05:53:40;74991.50;;;-140.58;100.00
17309;BME280;8772;42.804;23.426;2023-02-01T05:56:07;74991.50;;;-140.58;100.00
17309;BME280;8772;42.804;23.426;2023-02-01T05:58:34;74991.50;;;-140.58;100.00
17309;BME280;8772;42.804;23.426;2023-02-01T06:01:01;74983.28;;;-140.58;100.00
17309;BME280;8772;42.804;23.426;2023-02-01T06:03:28;74995.59;;;-140.58;100.00
17309;BME280;8772;42.804;23.426;2023-02-01T06:05:56;74989.44;;;-140.58;100.00
17309;BME280;8772;42.804;23.426;2023-02-01T06:08:23;74995.59;;;-140.58;100.00
17309;BME280;8772;42.804;23.426;2023-02-01T06:10:51;74997.66;;;-140.58;100.00
17309;BME280;8772;42.804;23.426;2023-02-01T06:13:23;74989.44;;;-140.58;100.00
17309;BME280;8772;42.804;23.426;2023-02-01T06:15:50;74997.66;;;-140.58;100.00
17309;BME280;8772;42.804;23.426;2023-02-01T06:18:17;74979.19;;;-140.58;100.00
17309;BME280;8772;42.804;23.426;2023-02-01T06:20:44;75005.84;;;-140.58;100.00
17309;BME280;8772;42.804;23.426;2023-02-01T06:23:13;74987.38;;;-140.58;100.00
17309;BME280;8772;42.804;23.426;2023-02-01T06:25:40;74979.19;;;-140.58;100.00
17309;BME280;8772;42.804;23.426;2023-02-01T06:28:07;74979.19;;;-140.58;100.00
17309;BME280;8772;42.804;23.426;2023-02-01T06:30:34;74981.22;;;-140.58;100.00
17309;BME280;8772;42.804;23.426;2023-02-01T06:33:01;74975.06;;;-140.58;100.00
17309;BME280;8772;42.804;23.426;2023-02-01T06:35:28;74970.97;;;-140.58;100.00
17309;BME280;8772;42.804;23.426;2023-02-01T06:37:55;74958.66;;;-140.58;100.00
17309;BME280;8772;42.804;23.426;2023-02-01T06:40:24;74962.75;;;-140.58;100.00
17309;BME280;8772;42.804;23.426;2023-02-01T06:42:51;74956.59;;;-140.58;100.00
17309;BME280;8772;42.804;23.426;2023-02-01T06:45:18;74944.28;;;-140.58;100.00
17309;BME280;8772;42.804;23.426;2023-02-01T06:47:45;74944.28;;;-140.58;100.00
17309;BME280;8772;42.804;23.426;2023-02-01T06:50:12;74936.09;;;-140.58;100.00
17309;BME280;8772;42.804;23.426;2023-02-01T06:52:39;74927.88;;;-140.58;100.00
17309;BME280;8772;42.804;23.426;2023-02-01T06:55:06;74929.94;;;-140.58;100.00
17309;BME280;8772;42.804;23.426;2023-02-01T06:57:35;74921.72;;;-140.58;100.00
17309;BME280;8772;42.804;23.426;2023-02-01T07:00:02;74917.63;;;-140.58;100.00
17309;BME280;8772;42.804;23.426;2023-02-01T07:02:29;74929.94;;;-140.58;100.00
17309;BME280;8772;42.804;23.426;2023-02-01T07:04:56;74934.03;;;-140.58;100.00
17309;BME280;8772;42.804;23.426;2023-02-01T07:07:23;74942.25;;;-140.58;100.00
17309;BME280;8772;42.804;23.426;2023-02-01T07:09:50;74936.09;;;-140.58;100.00
17309;BME280;8772;42.804;23.426;2023-02-01T07:12:18;74934.03;;;-140.58;100.00
17309;BME280;8772;42.804;23.426;2023-02-01T07:14:47;74938.13;;;-140.58;100.00
17309;BME280;8772;42.804;23.426;2023-02-01T07:17:14;74938.13;;;-140.58;100.00
17309;BME280;8772;42.804;23.426;2023-02-01T07:19:40;74934.03;;;-140.58;100.00
17309;BME280;8772;42.804;23.426;2023-02-01T07:22:07;74934.03;;;-140.58;100.00
17309;BME280;8772;42.804;23.426;2023-02-01T07:24:34;74938.13;;;-140.58;100.00
17309;BME280;8772;42.804;23.426;2023-02-01T07:27:01;74929.94;;;-140.58;100.00
17309;BME280;8772;42.804;23.426;2023-02-01T07:29:28;74921.72;;;-140.58;100.00
17309;BME280;8772;42.804;23.426;2023-02-01T07:31:56;74913.50;;;-140.58;100.00
17309;BME280;8772;42.804;23.426;2023-02-01T07:34:23;74909.41;;;-140.58;100.00
17309;BME280;8772;42.804;23.426;2023-02-01T07:36:50;74917.63;;;-140.58;100.00
17309;BME280;8772;42.804;23.426;2023-02-01T07:39:17;74921.72;;;-140.58;100.00
17309;BME280;8772;42.804;23.426;2023-02-01T07:41:45;74903.25;;;-140.58;100.00
17309;BME280;8772;42.804;23.426;2023-02-01T07:44:12;74901.19;;;-140.58;100.00
17309;BME280;8772;42.804;23.426;2023-02-01T07:46:38;74905.31;;;-140.58;100.00
17309;BME280;8772;42.804;23.426;2023-02-01T07:49:07;74905.31;;;-140.58;100.00
17309;BME280;8772;42.804;23.426;2023-02-01T07:51:34;74901.19;;;-140.58;100.00
17309;BME280;8772;42.804;23.426;2023-02-01T07:54:01;74899.16;;;-140.58;100.00
17309;BME280;8772;42.804;23.426;2023-02-01T07:56:28;74901.19;;;-140.58;100.00
17309;BME280;8772;42.804;23.426;2023-02-01T07:58:55;74901.19;;;-140.58;100.00
17309;BME280;8772;42.804;23.426;2023-02-01T08:01:26;74903.25;;;-140.58;100.00
17309;BME280;8772;42.804;23.426;2023-02-01T08:03:53;74909.41;;;-140.58;100.00
17309;BME280;8772;42.804;23.426;2023-02-01T08:06:23;74909.41;;;-140.58;100.00
17309;BME280;8772;42.804;23.426;2023-02-01T08:08:50;74899.16;;;-140.58;98.86
17309;BME280;8772;42.804;23.426;2023-02-01T08:11:18;74901.19;;;-140.58;99.89
17309;BME280;8772;42.804;23.426;2023-02-01T08:13:46;74888.88;;;-140.58;99.53
17309;BME280;8772;42.804;23.426;2023-02-01T08:16:14;74895.03;;;-140.58;97.72
17309;BME280;8772;42.804;23.426;2023-02-01T08:18:42;74880.69;;;-140.58;96.37
17309;BME280;8772;42.804;23.426;2023-02-01T08:21:10;74880.69;;;-140.58;96.38
17309;BME280;8772;42.804;23.426;2023-02-01T08:23:40;74884.78;;;-140.58;96.47
17309;BME280;8772;42.804;23.426;2023-02-01T08:26:09;74905.31;;;-140.58;97.41
17309;BME280;8772;42.804;23.426;2023-02-01T08:28:36;74897.09;;;-140.58;97.76
17309;BME280;8772;42.804;23.426;2023-02-01T08:31:05;74888.88;;;-140.58;98.38
17309;BME280;8772;42.804;23.426;2023-02-01T08:33:32;74884.78;;;-140.58;95.84
17309;BME280;8772;42.804;23.426;2023-02-01T08:36:01;74872.47;;;-140.58;95.46
17309;BME280;8772;42.804;23.426;2023-02-01T08:38:28;74870.41;;;-140.58;94.10
17309;BME280;8772;42.804;23.426;2023-02-01T08:40:56;74872.47;;;-140.58;95.62
17309;BME280;8772;42.804;23.426;2023-02-01T08:43:24;74860.16;;;-140.58;95.50
17309;BME280;8772;42.804;23.426;2023-02-01T08:45:54;74856.06;;;-140.58;93.69
17309;BME280;8772;42.804;23.426;2023-02-01T08:48:22;74847.84;;;-140.58;93.91
17309;BME280;8772;42.804;23.426;2023-02-01T08:50:49;74851.94;;;-140.58;93.91
17309;BME280;8772;42.804;23.426;2023-02-01T08:53:16;74839.63;;;-140.58;94.02
17309;BME280;8772;42.804;23.426;2023-02-01T08:55:43;74839.63;;;-140.58;92.05
17309;BME280;8772;42.804;23.426;2023-02-01T08:58:11;74847.84;;;-140.58;92.36
17309;BME280;8772;42.804;23.426;2023-02-01T09:00:39;74841.69;;;-140.58;94.05
17309;BME280;8772;42.804;23.426;2023-02-01T09:03:09;74839.63;;;-140.58;92.86
17309;BME280;8772;42.804;23.426;2023-02-01T09:05:36;74839.63;;;-140.58;92.50
17309;BME280;8772;42.804;23.426;2023-02-01T09:08:03;74839.63;;;-140.58;92.17
17309;BME280;8772;42.804;23.426;2023-02-01T09:10:31;74841.69;;;-140.58;92.00
17309;BME280;8772;42.804;23.426;2023-02-01T09:12:58;74837.59;;;-140.58;91.34
17309;BME280;8772;42.804;23.426;2023-02-01T09:15:26;74827.31;;;-140.58;91.59
17309;BME280;8772;42.804;23.426;2023-02-01T09:17:53;74819.13;;;-140.58;91.10
17309;BME280;8772;42.804;23.426;2023-02-01T09:20:20;74802.69;;;-140.58;91.18
17309;BME280;8772;42.804;23.426;2023-02-01T09:22:49;74790.38;;;-140.58;89.14
17309;BME280;8772;42.804;23.426;2023-02-01T09:25:16;74784.22;;;-140.58;88.15
17309;BME280;8772;42.804;23.426;2023-02-01T09:27:43;74782.19;;;-140.58;86.83
17309;BME280;8772;42.804;23.426;2023-02-01T09:30:11;74782.19;;;-140.58;85.89
17309;BME280;8772;42.804;23.426;2023-02-01T09:32:39;74790.38;;;-140.58;85.55
17309;BME280;8772;42.804;23.426;2023-02-01T09:35:07;74790.38;;;-140.58;84.51
17309;BME280;8772;42.804;23.426;2023-02-01T09:37:33;74786.28;;;-140.58;85.96
17309;BME280;8772;42.804;23.426;2023-02-01T09:40:01;74773.97;;;-140.58;85.68
17309;BME280;8772;42.804;23.426;2023-02-01T09:42:48;74773.97;;;-140.58;83.78
17309;BME280;8772;42.804;23.426;2023-02-01T09:45:22;74761.66;;;-140.58;82.04
17309;BME280;8772;42.804;23.426;2023-02-01T09:47:57;74757.56;;;-140.58;85.54
17309;BME280;8772;42.804;23.426;2023-02-01T09:50:32;74749.34;;;-140.58;84.27
17309;BME280;8772;42.804;23.426;2023-02-01T09:53:02;74726.78;;;-140.58;85.00
17309;BME280;8772;42.804;23.426;2023-02-01T09:55:35;74691.91;;;-140.58;86.63
17309;BME280;8772;42.804;23.426;2023-02-01T09:58:06;74671.38;;;-140.58;85.71
17309;BME280;8772;42.804;23.426;2023-02-01T10:00:35;74654.97;;;-140.58;82.31
17309;BME280;8772;42.804;23.426;2023-02-01T10:03:05;74650.84;;;-140.58;78.85
17309;BME280;8772;42.804;23.426;2023-02-01T10:05:48;74642.66;;;-140.58;81.05
17309;BME280;8772;42.804;23.426;2023-02-01T10:08:25;74628.28;;;-140.58;78.40
17309;BME280;8772;42.804;23.426;2023-02-01T10:11:02;74609.81;;;-140.58;79.17
17309;BME280;8772;42.804;23.426;2023-02-01T10:13:46;74615.97;;;-140.58;77.86
17309;BME280;8772;42.804;23.426;2023-02-01T10:16:22;74601.59;;;-140.58;77.03
17309;BME280;8772;42.804;23.426;2023-02-01T10:19:01;74597.50;;;-140.58;77.28
17309;BME280;8772;42.804;23.426;2023-02-01T10:21:43;74589.28;;;-140.58;75.05
17309;BME280;8772;42.804;23.426;2023-02-01T10:24:40;74589.28;;;-140.58;74.37
17309;BME280;8772;42.804;23.426;2023-02-01T10:27:15;74579.03;;;-140.58;74.33
17309;BME280;8772;42.804;23.426;2023-02-01T10:29:45;74576.97;;;-140.58;72.44
17309;BME280;8772;42.804;23.426;2023-02-01T10:32:15;74587.25;;;-140.58;73.54
17309;BME280;8772;42.804;23.426;2023-02-01T10:34:47;74593.41;;;-140.58;73.59
17309;BME280;8772;42.804;23.426;2023-02-01T10:37:23;74579.03;;;-140.58;73.98
17309;BME280;8772;42.804;23.426;2023-02-01T10:39:53;74560.56;;;-140.58;73.85
17309;BME280;8772;42.804;23.426;2023-02-01T10:42:25;74556.47;;;-140.58;73.26
17309;BME280;8772;42.804;23.426;2023-02-01T10:44:53;74544.16;;;-140.58;75.04
17309;BME280;8772;42.804;23.426;2023-02-01T10:47:21;74556.47;;;-140.58;73.65
17309;BME280;8772;42.804;23.426;2023-02-01T10:49:55;74531.84;;;-140.58;74.92
17309;BME280;8772;42.804;23.426;2023-02-01T10:52:31;74515.44;;;-140.58;72.27
17309;BME280;8772;42.804;23.426;2023-02-01T10:55:29;74515.44;;;-140.58;71.08
17309;BME280;8772;42.804;23.426;2023-02-01T10:57:59;74505.16;;;-140.58;69.15
17309;BME280;8772;42.804;23.426;2023-02-01T11:00:28;74505.16;;;-140.58;68.19
17309;BME280;8772;42.804;23.426;2023-02-01T11:03:00;74515.44;;;-140.58;70.48
17309;BME280;8772;42.804;23.426;2023-02-01T11:05:48;74503.13;;;-140.58;70.09
17309;BME280;8772;42.804;23.426;2023-02-01T11:08:16;74494.91;;;-140.58;69.10
17309;BME280;8772;42.804;23.426;2023-02-01T11:10:44;74470.28;;;-140.58;74.26
17309;BME280;8772;42.804;23.426;2023-02-01T11:13:13;74443.63;;;-140.58;69.54
17309;BME280;8772;42.804;23.426;2023-02-01T11:15:46;74431.31;;;-140.58;67.32
17309;BME280;8772;42.804;23.426;2023-02-01T11:18:25;74441.56;;;-140.58;66.10
17309;BME280;8772;42.804;23.426;2023-02-01T11:20:55;74433.34;;;-140.58;64.73
17309;BME280;8772;42.804;23.426;2023-02-01T11:23:24;74433.34;;;-140.58;66.23
17309;BME280;8772;42.804;23.426;2023-02-01T11:25:53;74421.03;;;-140.58;64.83
17309;BME280;8772;42.804;23.426;2023-02-01T11:28:23;74416.94;;;-140.58;66.31
17309;BME280;8772;42.804;23.426;2023-02-01T11:30:51;74412.84;;;-140.58;63.78
17309;BME280;8772;42.804;23.426;2023-02-01T11:33:22;74412.84;;;-140.58;64.56
17309;BME280;8772;42.804;23.426;2023-02-01T11:35:54;74396.41;;;-140.58;63.63
17309;BME280;8772;42.804;23.426;2023-02-01T11:38:26;74388.22;;;-140.58;63.05
17309;BME280;8772;42.804;23.426;2023-02-01T11:40:54;74384.13;;;-140.58;64.47
17309;BME280;8772;42.804;23.426;2023-02-01T11:43:24;74380.00;;;-140.58;63.68
17309;BME280;8772;42.804;23.426;2023-02-01T11:45:57;74359.50;;;-140.58;63.92
17309;BME280;8772;42.804;23.426;2023-02-01T11:48:26;74349.22;;;-140.58;61.83
17309;BME280;8772;42.804;23.426;2023-02-01T11:51:12;74351.28;;;-140.58;62.26
17309;BME280;8772;42.804;23.426;2023-02-01T11:54:02;74347.19;;;-140.58;62.33
17309;BME280;8772;42.804;23.426;2023-02-01T11:56:36;74347.19;;;-140.58;64.13
17309;BME280;8772;42.804;23.426;2023-02-01T11:59:21;74347.19;;;-140.58;64.17
17309;BME280;8772;42.804;23.426;2023-02-01T12:02:02;74343.06;;;-140.58;63.92
17309;BME280;8772;42.804;23.426;2023-02-01T12:04:48;74338.97;;;-140.58;61.95
17309;BME280;8772;42.804;23.426;2023-02-01T12:07:22;74330.75;;;-140.58;63.29
17309;BME280;8772;42.804;23.426;2023-02-01T12:10:01;74334.88;;;-140.58;63.19
17309;BME280;8772;42.804;23.426;2023-02-01T12:12:36;74334.88;;;-140.58;62.19
17309;BME280;8772;42.804;23.426;2023-02-01T12:15:27;74328.72;;;-140.58;61.65
17309;BME280;8772;42.804;23.426;2023-02-01T12:18:10;74310.25;;;-140.58;62.00
17309;BME280;8772;42.804;23.426;2023-02-01T12:21:03;74293.84;;;-140.58;63.63
17309;BME280;8772;42.804;23.426;2023-02-01T12:23:46;74293.84;;;-140.58;60.05
17309;BME280;8772;42.804;23.426;2023-02-01T12:26:43;74291.78;;;-140.58;61.17
17309;BME280;8772;42.804;23.426;2023-02-01T12:32:30;74265.09;;;-140.58;60.21
17309;BME280;8772;42.804;23.426;2023-02-01T12:35:14;74254.84;;;-140.58;60.13
17309;BME280;8772;42.804;23.426;2023-02-01T12:37:54;74248.69;;;-140.58;59.82
17309;BME280;8772;42.804;23.426;2023-02-01T12:40:39;74240.50;;;-140.58;58.44
17309;BME280;8772;42.804;23.426;2023-02-01T12:43:12;74238.44;;;-140.58;61.48
17309;BME280;8772;42.804;23.426;2023-02-01T12:45:49;74224.06;;;-140.58;58.72
17309;BME280;8772;42.804;23.426;2023-02-01T12:48:25;74215.88;;;-140.58;58.97
17309;BME280;8772;42.804;23.426;2023-02-01T12:50:56;74203.56;;;-140.58;58.54
17309;BME280;8772;42.804;23.426;2023-02-01T12:53:36;74174.84;;;-140.58;57.64
17309;BME280;8772;42.804;23.426;2023-02-01T12:56:12;74191.25;;;-140.58;57.71
17309;BME280;8772;42.804;23.426;2023-02-01T12:58:44;74201.50;;;-140.58;56.18
17309;BME280;8772;42.804;23.426;2023-02-01T13:01:14;74217.91;;;-140.58;56.20
17309;BME280;8772;42.804;23.426;2023-02-01T13:03:50;74211.75;;;-140.58;59.68
17309;BME280;8772;42.804;23.426;2023-02-01T13:06:22;74195.34;;;-140.58;61.41